sensor_id;sensor_type;location;lat;lon;timestamp;temperature;humidity
52016;DHT22;38032;53.326;6.472;2022-10-22T00:00:46;13.90;99.90
52016;DHT22;38032;53.326;6.472;2022-10-22T00:03:12;13.80;99.90
52016;DHT22;38032;53.326;6.472;2022-10-22T00:05:38;13.80;99.90
52016;DHT22;38032;53.326;6.472;2022-10-22T00:08:04;13.70;99.90
52016;DHT22;38032;53.326;6.472;2022-10-22T00:10:30;13.70;99.90
52016;DHT22;38032;53.326;6.472;2022-10-22T00:12:55;13.70;99.90
52016;DHT22;38032;53.326;6.472;2022-10-22T00:15:21;13.70;99.90
52016;DHT22;38032;53.326;6.472;2022-10-22T00:17:47;13.70;99.90
52016;DHT22;38032;53.326;6.472;2022-10-22T00:20:14;13.60;99.90
52016;DHT22;38032;53.326;6.472;2022-10-22T00:22:40;13.60;99.90
52016;DHT22;38032;53.326;6.472;2022-10-22T00:25:06;13.60;99.90
52016;DHT22;38032;53.326;6.472;2022-10-22T00:27:32;13.60;99.90
52016;DHT22;38032;53.326;6.472;2022-10-22T00:29:58;13.60;99.90
52016;DHT22;38032;53.326;6.472;2022-10-22T00:32:23;13.60;99.90
52016;DHT22;38032;53.326;6.472;2022-10-22T00:34:49;13.60;99.90
52016;DHT22;38032;53.326;6.472;2022-10-22T00:37:15;13.50;99.90
52016;DHT22;38032;53.326;6.472;2022-10-22T00:39:41;13.50;99.90
52016;DHT22;38032;53.326;6.472;2022-10-22T00:42:12;13.50;99.90
52016;DHT22;38032;53.326;6.472;2022-10-22T00:47:43;13.50;99.90
52016;DHT22;38032;53.326;6.472;2022-10-22T00:50:15;13.40;99.90
52016;DHT22;38032;53.326;6.472;2022-10-22T00:52:42;13.40;99.90
52016;DHT22;38032;53.326;6.472;2022-10-22T00:55:08;13.40;99.90
52016;DHT22;38032;53.326;6.472;2022-10-22T00:57:35;13.30;99.90
52016;DHT22;38032;53.326;6.472;2022-10-22T01:00:02;13.30;99.90
52016;DHT22;38032;53.326;6.472;2022-10-22T01:02:28;13.20;99.90
52016;DHT22;38032;53.326;6.472;2022-10-22T01:04:54;13.20;99.90
52016;DHT22;38032;53.326;6.472;2022-10-22T01:07:21;13.10;99.90
52016;DHT22;38032;53.326;6.472;2022-10-22T01:10:00;13.10;99.90
52016;DHT22;38032;53.326;6.472;2022-10-22T01:12:42;13.10;99.90
52016;DHT22;38032;53.326;6.472;2022-10-22T01:15:25;13.00;99.90
52016;DHT22;38032;53.326;6.472;2022-10-22T01:18:00;13.00;99.90
52016;DHT22;38032;53.326;6.472;2022-10-22T01:20:45;12.90;99.90
52016;DHT22;38032;53.326;6.472;2022-10-22T01:23:27;12.90;99.90
52016;DHT22;38032;53.326;6.472;2022-10-22T01:26:04;12.90;99.90
52016;DHT22;38032;53.326;6.472;2022-10-22T01:31:15;12.90;99.90
52016;DHT22;38032;53.326;6.472;2022-10-22T01:33:43;12.90;99.90
52016;DHT22;38032;53.326;6.472;2022-10-22T01:36:11;12.90;99.90
52016;DHT22;38032;53.326;6.472;2022-10-22T01:38:39;12.90;99.90
52016;DHT22;38032;53.326;6.472;2022-10-22T01:41:06;12.80;99.90
52016;DHT22;38032;53.326;6.472;2022-10-22T01:43:33;12.80;99.90
52016;DHT22;38032;53.326;6.472;2022-10-22T01:46:01;12.80;99.90
52016;DHT22;38032;53.326;6.472;2022-10-22T01:51:25;12.80;99.90
52016;DHT22;38032;53.326;6.472;2022-10-22T01:57:01;12.80;99.90
52016;DHT22;38032;53.326;6.472;2022-10-22T02:02:10;12.90;99.90
52016;DHT22;38032;53.326;6.472;2022-10-22T02:04:45;12.90;99.90
52016;DHT22;38032;53.326;6.472;2022-10-22T02:07:14;12.90;99.90
52016;DHT22;38032;53.326;6.472;2022-10-22T02:09:43;12.90;99.90
52016;DHT22;38032;53.326;6.472;2022-10-22T02:12:12;12.80;99.90
52016;DHT22;38032;53.326;6.472;2022-10-22T02:14:41;12.90;99.90
52016;DHT22;38032;53.326;6.472;2022-10-22T02:17:12;12.90;99.90
52016;DHT22;38032;53.326;6.472;2022-10-22T02:19:46;12.90;99.90
52016;DHT22;38032;53.326;6.472;2022-10-22T02:22:13;12.90;99.90
52016;DHT22;38032;53.326;6.472;2022-10-22T02:24:39;12.90;99.90
52016;DHT22;38032;53.326;6.472;2022-10-22T02:27:15;12.90;99.90
52016;DHT22;38032;53.326;6.472;2022-10-22T02:29:53;12.90;99.90
52016;DHT22;38032;53.326;6.472;2022-10-22T02:32:25;12.90;99.90
52016;DHT22;38032;53.326;6.472;2022-10-22T02:34:52;12.90;99.90
52016;DHT22;38032;53.326;6.472;2022-10-22T02:37:20;12.90;99.90
52016;DHT22;38032;53.326;6.472;2022-10-22T02:39:46;12.90;99.90
52016;DHT22;38032;53.326;6.472;2022-10-22T02:42:13;12.90;99.90
52016;DHT22;38032;53.326;6.472;2022-10-22T02:44:39;13.00;99.90
52016;DHT22;38032;53.326;6.472;2022-10-22T02:47:05;13.00;99.90
52016;DHT22;38032;53.326;6.472;2022-10-22T02:49:31;13.00;99.90
52016;DHT22;38032;53.326;6.472;2022-10-22T02:51:57;13.00;99.90
52016;DHT22;38032;53.326;6.472;2022-10-22T02:54:24;13.00;99.90
52016;DHT22;38032;53.326;6.472;2022-10-22T02:56:50;13.00;99.90
52016;DHT22;38032;53.326;6.472;2022-10-22T02:59:15;13.00;99.90
52016;DHT22;38032;53.326;6.472;2022-10-22T03:01:41;13.00;99.90
52016;DHT22;38032;53.326;6.472;2022-10-22T03:04:07;13.00;99.90
52016;DHT22;38032;53.326;6.472;2022-10-22T03:06:33;13.00;99.90
52016;DHT22;38032;53.326;6.472;2022-10-22T03:08:59;13.00;99.90
52016;DHT22;38032;53.326;6.472;2022-10-22T03:11:24;13.10;99.90
52016;DHT22;38032;53.326;6.472;2022-10-22T03:13:50;13.10;99.90
52016;DHT22;38032;53.326;6.472;2022-10-22T03:16:16;13.10;99.90
52016;DHT22;38032;53.326;6.472;2022-10-22T03:18:42;13.10;99.90
52016;DHT22;38032;53.326;6.472;2022-10-22T03:23:45;13.10;99.90
52016;DHT22;38032;53.326;6.472;2022-10-22T03:26:12;13.10;99.90
52016;DHT22;38032;53.326;6.472;2022-10-22T03:28:39;13.20;99.90
52016;DHT22;38032;53.326;6.472;2022-10-22T03:31:06;13.10;99.90
52016;DHT22;38032;53.326;6.472;2022-10-22T03:33:32;13.10;99.90
52016;DHT22;38032;53.326;6.472;2022-10-22T03:35:58;13.10;99.90
52016;DHT22;38032;53.326;6.472;2022-10-22T03:38:25;13.10;99.90
52016;DHT22;38032;53.326;6.472;2022-10-22T03:40:51;13.10;99.90
52016;DHT22;38032;53.326;6.472;2022-10-22T03:43:17;13.00;99.90
52016;DHT22;38032;53.326;6.472;2022-10-22T03:45:43;13.00;99.90
52016;DHT22;38032;53.326;6.472;2022-10-22T03:48:09;13.00;99.90
52016;DHT22;38032;53.326;6.472;2022-10-22T03:50:34;13.00;99.90
52016;DHT22;38032;53.326;6.472;2022-10-22T03:53:00;13.00;99.90
52016;DHT22;38032;53.326;6.472;2022-10-22T03:55:26;13.00;99.90
52016;DHT22;38032;53.326;6.472;2022-10-22T03:57:52;13.00;99.90
52016;DHT22;38032;53.326;6.472;2022-10-22T04:00:18;13.00;99.90
52016;DHT22;38032;53.326;6.472;2022-10-22T04:02:43;13.00;99.90
52016;DHT22;38032;53.326;6.472;2022-10-22T04:05:09;13.00;99.90
52016;DHT22;38032;53.326;6.472;2022-10-22T04:07:35;13.00;99.90
52016;DHT22;38032;53.326;6.472;2022-10-22T04:10:01;12.90;99.90
52016;DHT22;38032;53.326;6.472;2022-10-22T04:12:27;12.90;99.90
52016;DHT22;38032;53.326;6.472;2022-10-22T04:14:53;12.90;99.90
52016;DHT22;38032;53.326;6.472;2022-10-22T04:17:18;12.90;99.90
52016;DHT22;38032;53.326;6.472;2022-10-22T04:19:44;12.80;99.90
52016;DHT22;38032;53.326;6.472;2022-10-22T04:22:10;12.80;99.90
52016;DHT22;38032;53.326;6.472;2022-10-22T04:24:36;12.80;99.90
52016;DHT22;38032;53.326;6.472;2022-10-22T04:27:02;12.80;99.90
52016;DHT22;38032;53.326;6.472;2022-10-22T04:29:28;12.80;99.90
52016;DHT22;38032;53.326;6.472;2022-10-22T04:31:53;12.70;99.90
52016;DHT22;38032;53.326;6.472;2022-10-22T04:34:19;12.80;99.90
52016;DHT22;38032;53.326;6.472;2022-10-22T04:36:45;12.70;99.90
52016;DHT22;38032;53.326;6.472;2022-10-22T04:39:11;12.70;99.90
52016;DHT22;38032;53.326;6.472;2022-10-22T04:41:38;12.70;99.90
52016;DHT22;38032;53.326;6.472;2022-10-22T04:44:05;12.70;99.90
52016;DHT22;38032;53.326;6.472;2022-10-22T04:46:32;12.70;99.90
52016;DHT22;38032;53.326;6.472;2022-10-22T04:48:59;12.70;99.90
52016;DHT22;38032;53.326;6.472;2022-10-22T04:51:26;12.70;99.90
52016;DHT22;38032;53.326;6.472;2022-10-22T04:53:52;12.70;99.90
52016;DHT22;38032;53.326;6.472;2022-10-22T04:56:24;12.70;99.90
52016;DHT22;38032;53.326;6.472;2022-10-22T04:58:53;12.70;99.90
52016;DHT22;38032;53.326;6.472;2022-10-22T05:01:24;12.70;99.90
52016;DHT22;38032;53.326;6.472;2022-10-22T05:03:52;12.70;99.90
52016;DHT22;38032;53.326;6.472;2022-10-22T05:06:19;12.80;99.90
52016;DHT22;38032;53.326;6.472;2022-10-22T05:08:46;12.80;99.90
52016;DHT22;38032;53.326;6.472;2022-10-22T05:11:21;12.80;99.90
52016;DHT22;38032;53.326;6.472;2022-10-22T05:16:33;12.80;99.90
52016;DHT22;38032;53.326;6.472;2022-10-22T05:19:00;12.80;99.90
52016;DHT22;38032;53.326;6.472;2022-10-22T05:21:27;12.80;99.90
52016;DHT22;38032;53.326;6.472;2022-10-22T05:23:54;12.80;99.90
52016;DHT22;38032;53.326;6.472;2022-10-22T05:26:21;12.80;99.90
52016;DHT22;38032;53.326;6.472;2022-10-22T05:28:48;12.80;99.90
52016;DHT22;38032;53.326;6.472;2022-10-22T05:31:14;12.80;99.90
52016;DHT22;38032;53.326;6.472;2022-10-22T05:33:41;12.80;99.90
52016;DHT22;38032;53.326;6.472;2022-10-22T05:36:10;12.80;99.90
52016;DHT22;38032;53.326;6.472;2022-10-22T05:38:37;12.80;99.90
52016;DHT22;38032;53.326;6.472;2022-10-22T05:41:06;12.80;99.90
52016;DHT22;38032;53.326;6.472;2022-10-22T05:43:33;12.90;99.90
52016;DHT22;38032;53.326;6.472;2022-10-22T05:46:04;12.80;99.90
52016;DHT22;38032;53.326;6.472;2022-10-22T05:48:30;12.80;99.90
52016;DHT22;38032;53.326;6.472;2022-10-22T05:50:56;12.80;99.90
52016;DHT22;38032;53.326;6.472;2022-10-22T05:53:22;12.80;99.90
52016;DHT22;38032;53.326;6.472;2022-10-22T05:55:48;12.70;99.90
52016;DHT22;38032;53.326;6.472;2022-10-22T05:58:14;12.70;99.90
52016;DHT22;38032;53.326;6.472;2022-10-22T06:00:40;12.80;99.90
52016;DHT22;38032;53.326;6.472;2022-10-22T06:03:06;12.70;99.90
52016;DHT22;38032;53.326;6.472;2022-10-22T06:05:35;12.70;99.90
52016;DHT22;38032;53.326;6.472;2022-10-22T06:08:02;12.70;99.90
52016;DHT22;38032;53.326;6.472;2022-10-22T06:10:29;12.70;99.90
52016;DHT22;38032;53.326;6.472;2022-10-22T06:12:54;12.70;99.90
52016;DHT22;38032;53.326;6.472;2022-10-22T06:15:20;12.70;99.90
52016;DHT22;38032;53.326;6.472;2022-10-22T06:17:47;12.70;99.90
52016;DHT22;38032;53.326;6.472;2022-10-22T06:20:13;12.70;99.90
52016;DHT22;38032;53.326;6.472;2022-10-22T06:22:39;12.80;99.90
52016;DHT22;38032;53.326;6.472;2022-10-22T06:25:06;12.80;99.90
52016;DHT22;38032;53.326;6.472;2022-10-22T06:27:33;12.80;99.90
52016;DHT22;38032;53.326;6.472;2022-10-22T06:29:59;12.80;99.90
52016;DHT22;38032;53.326;6.472;2022-10-22T06:32:25;12.80;99.90
52016;DHT22;38032;53.326;6.472;2022-10-22T06:34:51;12.80;99.90
52016;DHT22;38032;53.326;6.472;2022-10-22T06:37:17;12.80;99.90
52016;DHT22;38032;53.326;6.472;2022-10-22T06:39:58;12.80;99.90
52016;DHT22;38032;53.326;6.472;2022-10-22T06:42:24;12.90;99.90
52016;DHT22;38032;53.326;6.472;2022-10-22T06:44:50;12.90;99.90
52016;DHT22;38032;53.326;6.472;2022-10-22T06:47:16;12.90;99.90
52016;DHT22;38032;53.326;6.472;2022-10-22T06:49:42;12.90;99.90
52016;DHT22;38032;53.326;6.472;2022-10-22T06:52:08;12.90;99.90
52016;DHT22;38032;53.326;6.472;2022-10-22T06:54:33;13.00;99.90
52016;DHT22;38032;53.326;6.472;2022-10-22T06:56:59;13.00;99.90
52016;DHT22;38032;53.326;6.472;2022-10-22T06:59:25;13.00;99.90
52016;DHT22;38032;53.326;6.472;2022-10-22T07:01:51;13.10;99.90
52016;DHT22;38032;53.326;6.472;2022-10-22T07:04:17;13.10;99.90
52016;DHT22;38032;53.326;6.472;2022-10-22T07:06:42;13.10;99.90
52016;DHT22;38032;53.326;6.472;2022-10-22T07:09:08;13.10;99.90
52016;DHT22;38032;53.326;6.472;2022-10-22T07:11:43;13.20;99.90
52016;DHT22;38032;53.326;6.472;2022-10-22T07:14:09;13.20;99.90
52016;DHT22;38032;53.326;6.472;2022-10-22T07:16:35;13.20;99.90
52016;DHT22;38032;53.326;6.472;2022-10-22T07:19:03;13.30;99.90
52016;DHT22;38032;53.326;6.472;2022-10-22T07:21:30;13.30;99.90
52016;DHT22;38032;53.326;6.472;2022-10-22T07:23:56;13.30;99.90
52016;DHT22;38032;53.326;6.472;2022-10-22T07:26:25;13.40;99.90
52016;DHT22;38032;53.326;6.472;2022-10-22T07:28:53;13.40;99.90
52016;DHT22;38032;53.326;6.472;2022-10-22T07:31:18;13.40;99.90
52016;DHT22;38032;53.326;6.472;2022-10-22T07:33:45;13.50;99.90
52016;DHT22;38032;53.326;6.472;2022-10-22T07:36:13;13.40;99.90
52016;DHT22;38032;53.326;6.472;2022-10-22T07:38:43;13.40;99.90
52016;DHT22;38032;53.326;6.472;2022-10-22T07:41:10;13.50;99.90
52016;DHT22;38032;53.326;6.472;2022-10-22T07:43:35;13.50;99.90
52016;DHT22;38032;53.326;6.472;2022-10-22T07:46:01;13.50;99.90
52016;DHT22;38032;53.326;6.472;2022-10-22T07:48:27;13.60;99.90
52016;DHT22;38032;53.326;6.472;2022-10-22T07:50:53;13.60;99.90
52016;DHT22;38032;53.326;6.472;2022-10-22T07:53:19;13.60;99.90
52016;DHT22;38032;53.326;6.472;2022-10-22T07:55:48;13.60;99.90
52016;DHT22;38032;53.326;6.472;2022-10-22T07:58:15;13.70;99.90
52016;DHT22;38032;53.326;6.472;2022-10-22T08:00:41;13.70;99.90
52016;DHT22;38032;53.326;6.472;2022-10-22T08:03:10;13.70;99.90
52016;DHT22;38032;53.326;6.472;2022-10-22T08:05:36;13.70;99.90
52016;DHT22;38032;53.326;6.472;2022-10-22T08:08:04;13.80;99.90
52016;DHT22;38032;53.326;6.472;2022-10-22T08:10:31;13.80;99.90
52016;DHT22;38032;53.326;6.472;2022-10-22T08:12:57;13.80;99.90
52016;DHT22;38032;53.326;6.472;2022-10-22T08:15:24;13.80;99.90
52016;DHT22;38032;53.326;6.472;2022-10-22T08:17:51;13.90;99.90
52016;DHT22;38032;53.326;6.472;2022-10-22T08:20:17;13.90;99.90
52016;DHT22;38032;53.326;6.472;2022-10-22T08:22:43;14.00;99.90
52016;DHT22;38032;53.326;6.472;2022-10-22T08:25:09;14.00;99.90
52016;DHT22;38032;53.326;6.472;2022-10-22T08:27:36;14.00;99.90
52016;DHT22;38032;53.326;6.472;2022-10-22T08:30:03;14.10;99.90
52016;DHT22;38032;53.326;6.472;2022-10-22T08:32:29;14.10;99.90
52016;DHT22;38032;53.326;6.472;2022-10-22T08:34:55;14.30;99.90
52016;DHT22;38032;53.326;6.472;2022-10-22T08:37:20;14.50;99.90
52016;DHT22;38032;53.326;6.472;2022-10-22T08:39:46;14.70;99.90
52016;DHT22;38032;53.326;6.472;2022-10-22T08:42:30;15.00;99.90
52016;DHT22;38032;53.326;6.472;2022-10-22T08:45:18;15.50;99.90
52016;DHT22;38032;53.326;6.472;2022-10-22T08:47:48;16.10;99.90
52016;DHT22;38032;53.326;6.472;2022-10-22T08:50:23;16.40;99.90
52016;DHT22;38032;53.326;6.472;2022-10-22T08:52:52;16.50;99.90
52016;DHT22;38032;53.326;6.472;2022-10-22T08:55:22;16.60;99.90
52016;DHT22;38032;53.326;6.472;2022-10-22T08:58:13;17.10;99.90
52016;DHT22;38032;53.326;6.472;2022-10-22T09:00:46;17.60;99.90
52016;DHT22;38032;53.326;6.472;2022-10-22T09:06:14;19.50;99.90
52016;DHT22;38032;53.326;6.472;2022-10-22T09:08:44;19.50;99.90
52016;DHT22;38032;53.326;6.472;2022-10-22T09:13:40;21.10;99.90
52016;DHT22;38032;53.326;6.472;2022-10-22T09:16:18;21.90;99.90
52016;DHT22;38032;53.326;6.472;2022-10-22T09:21:30;23.10;99.90
52016;DHT22;38032;53.326;6.472;2022-10-22T09:24:09;23.70;99.90
52016;DHT22;38032;53.326;6.472;2022-10-22T09:26:38;24.20;99.90
52016;DHT22;38032;53.326;6.472;2022-10-22T09:29:05;24.60;99.90
52016;DHT22;38032;53.326;6.472;2022-10-22T09:31:32;24.60;99.90
52016;DHT22;38032;53.326;6.472;2022-10-22T09:33:59;24.40;99.90
52016;DHT22;38032;53.326;6.472;2022-10-22T09:36:31;24.10;99.90
52016;DHT22;38032;53.326;6.472;2022-10-22T09:38:57;23.70;99.90
52016;DHT22;38032;53.326;6.472;2022-10-22T09:41:26;23.40;99.90
52016;DHT22;38032;53.326;6.472;2022-10-22T09:43:54;23.10;99.90
52016;DHT22;38032;53.326;6.472;2022-10-22T09:46:23;22.80;99.90
52016;DHT22;38032;53.326;6.472;2022-10-22T09:49:02;22.40;99.90
52016;DHT22;38032;53.326;6.472;2022-10-22T09:51:54;22.00;99.90
52016;DHT22;38032;53.326;6.472;2022-10-22T09:56:53;21.30;99.90
52016;DHT22;38032;53.326;6.472;2022-10-22T09:59:27;21.00;99.90
52016;DHT22;38032;53.326;6.472;2022-10-22T10:02:12;20.80;99.90
52016;DHT22;38032;53.326;6.472;2022-10-22T10:04:41;20.50;99.90
52016;DHT22;38032;53.326;6.472;2022-10-22T10:07:16;20.40;99.90
52016;DHT22;38032;53.326;6.472;2022-10-22T10:09:42;20.20;99.90
52016;DHT22;38032;53.326;6.472;2022-10-22T10:12:24;20.00;99.90
52016;DHT22;38032;53.326;6.472;2022-10-22T10:15:19;19.80;99.90
52016;DHT22;38032;53.326;6.472;2022-10-22T10:17:57;19.70;99.90
52016;DHT22;38032;53.326;6.472;2022-10-22T10:20:45;19.60;99.90
52016;DHT22;38032;53.326;6.472;2022-10-22T10:23:26;19.40;99.90
52016;DHT22;38032;53.326;6.472;2022-10-22T10:26:04;19.40;99.90
52016;DHT22;38032;53.326;6.472;2022-10-22T10:28:35;19.40;99.90
52016;DHT22;38032;53.326;6.472;2022-10-22T10:39:29;18.80;99.90
52016;DHT22;38032;53.326;6.472;2022-10-22T10:42:01;18.80;99.90
52016;DHT22;38032;53.326;6.472;2022-10-22T10:44:39;18.60;99.90
52016;DHT22;38032;53.326;6.472;2022-10-22T10:49:42;18.50;99.90
52016;DHT22;38032;53.326;6.472;2022-10-22T10:52:33;18.80;99.90
52016;DHT22;38032;53.326;6.472;2022-10-22T10:57:45;18.60;99.90
52016;DHT22;38032;53.326;6.472;2022-10-22T11:00:17;18.40;99.90
52016;DHT22;38032;53.326;6.472;2022-10-22T11:03:10;18.40;99.90
52016;DHT22;38032;53.326;6.472;2022-10-22T11:05:45;18.30;99.90
52016;DHT22;38032;53.326;6.472;2022-10-22T11:08:22;18.30;99.90
52016;DHT22;38032;53.326;6.472;2022-10-22T11:11:04;18.30;99.90
52016;DHT22;38032;53.326;6.472;2022-10-22T11:13:35;18.20;99.90
52016;DHT22;38032;53.326;6.472;2022-10-22T11:16:11;18.20;99.90
52016;DHT22;38032;53.326;6.472;2022-10-22T11:18:44;18.20;99.90
52016;DHT22;38032;53.326;6.472;2022-10-22T11:23:48;18.30;99.90
52016;DHT22;38032;53.326;6.472;2022-10-22T11:26:34;18.40;99.90
52016;DHT22;38032;53.326;6.472;2022-10-22T11:29:03;18.60;99.90
52016;DHT22;38032;53.326;6.472;2022-10-22T11:31:32;18.60;99.90
52016;DHT22;38032;53.326;6.472;2022-10-22T11:34:10;18.60;99.90
52016;DHT22;38032;53.326;6.472;2022-10-22T11:36:39;18.60;99.90
52016;DHT22;38032;53.326;6.472;2022-10-22T11:39:06;18.50;99.90
52016;DHT22;38032;53.326;6.472;2022-10-22T11:41:33;18.40;99.90
52016;DHT22;38032;53.326;6.472;2022-10-22T11:46:39;18.20;99.90
52016;DHT22;38032;53.326;6.472;2022-10-22T11:51:36;18.10;99.90
52016;DHT22;38032;53.326;6.472;2022-10-22T11:54:31;18.00;99.90
52016;DHT22;38032;53.326;6.472;2022-10-22T12:02:28;17.90;99.90
52016;DHT22;38032;53.326;6.472;2022-10-22T12:07:55;17.70;99.90
52016;DHT22;38032;53.326;6.472;2022-10-22T12:10:29;17.70;99.90
52016;DHT22;38032;53.326;6.472;2022-10-22T12:13:09;17.60;99.90
52016;DHT22;38032;53.326;6.472;2022-10-22T12:15:46;17.60;99.90
52016;DHT22;38032;53.326;6.472;2022-10-22T12:18:12;17.70;99.90
52016;DHT22;38032;53.326;6.472;2022-10-22T12:20:39;17.70;99.90
52016;DHT22;38032;53.326;6.472;2022-10-22T12:23:07;17.70;99.90
52016;DHT22;38032;53.326;6.472;2022-10-22T12:25:33;17.70;99.90
52016;DHT22;38032;53.326;6.472;2022-10-22T12:28:01;17.80;99.90
52016;DHT22;38032;53.326;6.472;2022-10-22T12:30:31;17.80;99.90
52016;DHT22;38032;53.326;6.472;2022-10-22T12:33:02;17.80;99.90
52016;DHT22;38032;53.326;6.472;2022-10-22T12:35:31;17.80;99.90
52016;DHT22;38032;53.326;6.472;2022-10-22T12:38:01;17.70;99.90
52016;DHT22;38032;53.326;6.472;2022-10-22T12:40:29;17.70;99.90
52016;DHT22;38032;53.326;6.472;2022-10-22T12:42:58;17.70;99.90
52016;DHT22;38032;53.326;6.472;2022-10-22T12:45:28;17.60;99.90
52016;DHT22;38032;53.326;6.472;2022-10-22T12:47:58;17.60;99.90
52016;DHT22;38032;53.326;6.472;2022-10-22T12:50:31;17.60;99.90
52016;DHT22;38032;53.326;6.472;2022-10-22T12:52:58;17.60;99.90
52016;DHT22;38032;53.326;6.472;2022-10-22T12:55:25;17.60;99.90
52016;DHT22;38032;53.326;6.472;2022-10-22T12:57:52;17.60;99.90
52016;DHT22;38032;53.326;6.472;2022-10-22T13:00:25;17.60;99.90
52016;DHT22;38032;53.326;6.472;2022-10-22T13:02:52;17.60;99.90
52016;DHT22;38032;53.326;6.472;2022-10-22T13:07:53;17.70;99.90
52016;DHT22;38032;53.326;6.472;2022-10-22T13:10:24;17.70;99.90
52016;DHT22;38032;53.326;6.472;2022-10-22T13:12:54;17.70;99.90
52016;DHT22;38032;53.326;6.472;2022-10-22T13:18:01;17.70;99.90
52016;DHT22;38032;53.326;6.472;2022-10-22T13:20:28;17.70;99.90
52016;DHT22;38032;53.326;6.472;2022-10-22T13:22:58;17.70;99.90
52016;DHT22;38032;53.326;6.472;2022-10-22T13:25:27;17.70;99.90
52016;DHT22;38032;53.326;6.472;2022-10-22T13:27:59;17.70;99.90
52016;DHT22;38032;53.326;6.472;2022-10-22T13:30:29;17.70;99.90
52016;DHT22;38032;53.326;6.472;2022-10-22T13:32:58;17.80;99.90
52016;DHT22;38032;53.326;6.472;2022-10-22T13:35:28;17.80;99.90
52016;DHT22;38032;53.326;6.472;2022-10-22T13:37:54;17.90;99.90
52016;DHT22;38032;53.326;6.472;2022-10-22T13:40:20;18.00;99.90
52016;DHT22;38032;53.326;6.472;2022-10-22T13:42:46;18.00;99.90
52016;DHT22;38032;53.326;6.472;2022-10-22T13:45:13;18.00;99.90
52016;DHT22;38032;53.326;6.472;2022-10-22T13:47:39;18.10;99.90
52016;DHT22;38032;53.326;6.472;2022-10-22T13:50:13;18.10;99.90
52016;DHT22;38032;53.326;6.472;2022-10-22T13:52:43;18.10;99.90
52016;DHT22;38032;53.326;6.472;2022-10-22T13:55:17;18.10;99.90
52016;DHT22;38032;53.326;6.472;2022-10-22T13:57:44;18.10;99.90
52016;DHT22;38032;53.326;6.472;2022-10-22T14:00:14;18.10;99.90
52016;DHT22;38032;53.326;6.472;2022-10-22T14:02:40;18.10;99.90
52016;DHT22;38032;53.326;6.472;2022-10-22T14:05:06;18.10;99.90
52016;DHT22;38032;53.326;6.472;2022-10-22T14:07:35;18.10;99.90
52016;DHT22;38032;53.326;6.472;2022-10-22T14:10:02;18.10;99.90
52016;DHT22;38032;53.326;6.472;2022-10-22T14:12:28;18.10;99.90
52016;DHT22;38032;53.326;6.472;2022-10-22T14:14:54;18.10;99.90
52016;DHT22;38032;53.326;6.472;2022-10-22T14:17:19;18.10;99.90
52016;DHT22;38032;53.326;6.472;2022-10-22T14:19:46;18.10;99.90
52016;DHT22;38032;53.326;6.472;2022-10-22T14:22:17;18.00;99.90
52016;DHT22;38032;53.326;6.472;2022-10-22T14:24:44;18.00;99.90
52016;DHT22;38032;53.326;6.472;2022-10-22T14:27:14;18.00;99.90
52016;DHT22;38032;53.326;6.472;2022-10-22T14:29:40;17.90;99.90
52016;DHT22;38032;53.326;6.472;2022-10-22T14:32:12;17.90;99.90
52016;DHT22;38032;53.326;6.472;2022-10-22T14:34:40;17.90;99.90
52016;DHT22;38032;53.326;6.472;2022-10-22T14:37:16;17.90;99.90
52016;DHT22;38032;53.326;6.472;2022-10-22T14:39:42;17.90;99.90
52016;DHT22;38032;53.326;6.472;2022-10-22T14:42:10;17.90;99.90
52016;DHT22;38032;53.326;6.472;2022-10-22T14:44:36;18.00;99.90
52016;DHT22;38032;53.326;6.472;2022-10-22T14:47:02;17.90;99.90
52016;DHT22;38032;53.326;6.472;2022-10-22T14:49:28;17.90;99.90
52016;DHT22;38032;53.326;6.472;2022-10-22T14:51:53;17.90;99.90
52016;DHT22;38032;53.326;6.472;2022-10-22T14:54:19;17.80;99.90
52016;DHT22;38032;53.326;6.472;2022-10-22T14:56:45;17.70;99.90
52016;DHT22;38032;53.326;6.472;2022-10-22T14:59:11;17.70;99.90
52016;DHT22;38032;53.326;6.472;2022-10-22T15:01:37;17.60;99.90
52016;DHT22;38032;53.326;6.472;2022-10-22T15:04:04;17.60;99.90
52016;DHT22;38032;53.326;6.472;2022-10-22T15:06:30;17.50;99.90
52016;DHT22;38032;53.326;6.472;2022-10-22T15:08:55;17.50;99.90
52016;DHT22;38032;53.326;6.472;2022-10-22T15:11:21;17.40;99.90
52016;DHT22;38032;53.326;6.472;2022-10-22T15:13:47;17.40;99.90
52016;DHT22;38032;53.326;6.472;2022-10-22T15:16:14;17.30;99.90
52016;DHT22;38032;53.326;6.472;2022-10-22T15:18:41;17.20;99.90
52016;DHT22;38032;53.326;6.472;2022-10-22T15:21:14;17.20;99.90
52016;DHT22;38032;53.326;6.472;2022-10-22T15:23:40;17.20;99.90
52016;DHT22;38032;53.326;6.472;2022-10-22T15:26:07;17.20;99.90
52016;DHT22;38032;53.326;6.472;2022-10-22T15:28:33;17.20;99.90
52016;DHT22;38032;53.326;6.472;2022-10-22T15:31:00;17.20;99.90
52016;DHT22;38032;53.326;6.472;2022-10-22T15:33:27;17.10;99.90
52016;DHT22;38032;53.326;6.472;2022-10-22T15:35:53;17.10;99.90
52016;DHT22;38032;53.326;6.472;2022-10-22T15:38:19;17.10;99.90
52016;DHT22;38032;53.326;6.472;2022-10-22T15:40:45;17.10;99.90
52016;DHT22;38032;53.326;6.472;2022-10-22T15:43:11;17.10;99.90
52016;DHT22;38032;53.326;6.472;2022-10-22T15:45:37;17.00;99.90
52016;DHT22;38032;53.326;6.472;2022-10-22T15:48:03;16.90;99.90
52016;DHT22;38032;53.326;6.472;2022-10-22T15:50:30;16.90;99.90
52016;DHT22;38032;53.326;6.472;2022-10-22T15:52:56;16.80;99.90
52016;DHT22;38032;53.326;6.472;2022-10-22T15:55:22;16.70;99.90
52016;DHT22;38032;53.326;6.472;2022-10-22T15:57:48;16.60;99.90
52016;DHT22;38032;53.326;6.472;2022-10-22T16:00:20;16.60;99.90
52016;DHT22;38032;53.326;6.472;2022-10-22T16:02:46;16.50;99.90
52016;DHT22;38032;53.326;6.472;2022-10-22T16:05:12;16.50;99.90
52016;DHT22;38032;53.326;6.472;2022-10-22T16:07:38;16.40;99.90
52016;DHT22;38032;53.326;6.472;2022-10-22T16:10:04;16.30;99.90
52016;DHT22;38032;53.326;6.472;2022-10-22T16:12:32;16.30;99.90
52016;DHT22;38032;53.326;6.472;2022-10-22T16:15:00;16.20;99.90
52016;DHT22;38032;53.326;6.472;2022-10-22T16:17:26;16.20;99.90
52016;DHT22;38032;53.326;6.472;2022-10-22T16:19:52;16.10;99.90
52016;DHT22;38032;53.326;6.472;2022-10-22T16:22:18;16.00;99.90
52016;DHT22;38032;53.326;6.472;2022-10-22T16:24:43;16.00;99.90
52016;DHT22;38032;53.326;6.472;2022-10-22T16:27:09;15.90;99.90
52016;DHT22;38032;53.326;6.472;2022-10-22T16:29:37;15.90;99.90
52016;DHT22;38032;53.326;6.472;2022-10-22T16:32:04;15.90;99.90
52016;DHT22;38032;53.326;6.472;2022-10-22T16:34:29;15.80;99.90
52016;DHT22;38032;53.326;6.472;2022-10-22T16:36:55;15.80;99.90
52016;DHT22;38032;53.326;6.472;2022-10-22T16:39:21;15.70;99.90
52016;DHT22;38032;53.326;6.472;2022-10-22T16:41:48;15.60;99.90
52016;DHT22;38032;53.326;6.472;2022-10-22T16:44:14;15.60;99.90